createdAt,value
2019-05-26T00:01:02.110Z,99.19
2019-05-26T00:03:31.966Z,99.10
2019-05-26T00:06:01.736Z,99.12
2019-05-26T00:08:34.745Z,99.44
2019-05-26T00:11:04.622Z,99.79
2019-05-26T00:13:34.381Z,99.96
2019-05-26T00:16:04.204Z,99.77
2019-05-26T00:18:34.309Z,99.53
2019-05-26T00:21:04.419Z,99.71
2019-05-26T00:23:34.146Z,99.92
2019-05-26T00:26:03.853Z,99.81
2019-05-26T00:28:33.726Z,99.88
2019-05-26T00:31:03.554Z,99.73
2019-05-26T00:33:33.314Z,99.84
2019-05-26T00:36:03.060Z,100.00
2019-05-26T00:38:32.902Z,100.00
2019-05-26T00:41:02.716Z,100.00
2019-05-26T00:43:32.497Z,100.00
2019-05-26T00:46:02.413Z,100.00
2019-05-26T00:48:32.189Z,100.00
2019-05-26T00:51:02.021Z,100.00
2019-05-26T00:53:31.909Z,100.00
2019-05-26T00:56:01.744Z,100.00
2019-05-26T00:58:31.640Z,100.00
2019-05-26T01:01:01.481Z,100.00
2019-05-26T01:03:31.306Z,100.00
2019-05-26T01:06:01.091Z,100.00
2019-05-26T01:08:30.878Z,100.00
2019-05-26T01:11:01.545Z,100.00
2019-05-26T01:13:31.414Z,100.00
2019-05-26T01:16:01.277Z,100.00
2019-05-26T01:18:30.979Z,100.00
2019-05-26T01:21:00.748Z,100.00
2019-05-26T01:23:30.416Z,100.00
2019-05-26T01:26:00.204Z,100.00
2019-05-26T01:28:29.948Z,100.00
2019-05-26T01:30:59.648Z,100.00
2019-05-26T01:33:29.503Z,100.00
2019-05-26T01:36:00.135Z,100.00
2019-05-26T01:38:30.644Z,100.00
2019-05-26T01:41:00.386Z,100.00
2019-05-26T01:43:30.095Z,100.00
2019-05-26T01:45:59.852Z,100.00
2019-05-26T01:48:29.706Z,100.00
2019-05-26T01:50:59.457Z,100.00
2019-05-26T01:53:29.228Z,100.00
2019-05-26T01:55:58.984Z,100.00
2019-05-26T01:58:28.767Z,100.00
2019-05-26T02:00:58.515Z,100.00
2019-05-26T02:03:28.241Z,100.00
2019-05-26T02:05:57.995Z,100.00
2019-05-26T02:08:38.889Z,100.00
2019-05-26T02:10:59.114Z,100.00
2019-05-26T02:13:28.888Z,100.00
2019-05-26T02:15:58.728Z,100.00
2019-05-26T02:18:28.482Z,100.00
2019-05-26T02:20:58.236Z,100.00
2019-05-26T02:23:27.986Z,100.00
2019-05-26T02:25:57.754Z,100.00
2019-05-26T02:28:27.443Z,100.00
2019-05-26T02:30:57.153Z,100.00
2019-05-26T02:33:26.835Z,100.00
2019-05-26T02:35:56.735Z,100.00
2019-05-26T02:38:26.816Z,100.00
2019-05-26T02:40:56.629Z,100.00
2019-05-26T02:43:26.316Z,100.00
2019-05-26T02:45:56.021Z,100.00
2019-05-26T02:48:25.762Z,100.00
2019-05-26T02:50:55.573Z,100.00
2019-05-26T02:53:25.373Z,100.00
2019-05-26T02:55:55.133Z,100.00
2019-05-26T02:58:25.019Z,100.00
2019-05-26T03:00:54.733Z,100.00
2019-05-26T03:03:24.923Z,100.00
2019-05-26T03:05:55.566Z,100.00
2019-05-26T03:08:26.900Z,100.00
2019-05-26T03:10:58.594Z,100.00
2019-05-26T03:13:29.097Z,100.00
2019-05-26T03:16:00.461Z,100.00
2019-05-26T03:18:32.879Z,100.00
2019-05-26T03:21:03.928Z,100.00
2019-05-26T03:23:33.821Z,100.00
2019-05-26T03:26:03.706Z,100.00
2019-05-26T03:28:33.466Z,100.00
2019-05-26T03:31:03.348Z,100.00
2019-05-26T03:33:33.069Z,100.00
2019-05-26T03:36:02.772Z,100.00
2019-05-26T03:38:32.468Z,100.00
2019-05-26T03:41:02.246Z,100.00
2019-05-26T03:43:31.983Z,100.00
2019-05-26T03:46:04.748Z,100.00
2019-05-26T03:48:34.466Z,100.00
2019-05-26T03:51:04.326Z,100.00
2019-05-26T03:53:34.081Z,100.00
2019-05-26T03:56:03.782Z,100.00
2019-05-26T03:58:33.568Z,100.00
2019-05-26T04:01:03.272Z,100.00
2019-05-26T04:03:32.989Z,100.00
2019-05-26T04:06:02.753Z,100.00
2019-05-26T04:08:32.451Z,100.00
2019-05-26T04:11:02.249Z,100.00
2019-05-26T04:13:32.378Z,100.00
2019-05-26T04:16:02.334Z,100.00
2019-05-26T04:18:32.466Z,100.00
2019-05-26T04:21:02.346Z,100.00
2019-05-26T04:23:32.099Z,100.00
2019-05-26T04:26:01.886Z,100.00
2019-05-26T04:28:31.556Z,100.00
2019-05-26T04:31:01.269Z,100.00
2019-05-26T04:33:31.125Z,99.89
2019-05-26T04:36:00.951Z,100.00
2019-05-26T04:38:30.658Z,100.00
2019-05-26T04:41:01.040Z,100.00
2019-05-26T04:43:30.722Z,99.68
2019-05-26T04:46:00.559Z,98.32
2019-05-26T04:48:31.436Z,98.53
2019-05-26T04:51:01.106Z,98.79
2019-05-26T04:53:30.772Z,98.34
2019-05-26T04:56:00.476Z,98.39
2019-05-26T04:58:30.231Z,98.62
2019-05-26T05:00:59.965Z,98.07
2019-05-26T05:03:31.169Z,97.78
2019-05-26T05:06:00.874Z,98.39
2019-05-26T05:08:30.622Z,96.60
2019-05-26T05:11:00.323Z,97.55
2019-05-26T05:13:30.110Z,97.42
2019-05-26T05:15:59.858Z,97.47
2019-05-26T05:18:29.642Z,96.53
2019-05-26T05:20:59.420Z,97.41
2019-05-26T05:23:29.160Z,96.84
2019-05-26T05:25:59.023Z,96.02
2019-05-26T05:28:28.711Z,96.58
2019-05-26T05:30:58.402Z,95.88
2019-05-26T05:33:28.122Z,96.47
2019-05-26T05:35:57.813Z,95.87
2019-05-26T05:38:27.500Z,96.28
2019-05-26T05:40:59.941Z,96.33
2019-05-26T05:43:28.664Z,96.25
2019-05-26T05:45:58.453Z,96.70
2019-05-26T05:48:28.235Z,96.20
2019-05-26T05:50:58.020Z,95.98
2019-05-26T05:53:27.868Z,96.57
2019-05-26T05:55:57.653Z,95.73
2019-05-26T05:58:27.377Z,95.81
2019-05-26T06:00:57.063Z,95.67
2019-05-26T06:03:27.178Z,95.84
2019-05-26T06:05:56.912Z,95.69
2019-05-26T06:08:26.615Z,95.66
2019-05-26T06:10:56.339Z,95.26
2019-05-26T06:13:26.193Z,95.26
2019-05-26T06:15:55.923Z,94.06
2019-05-26T06:18:25.602Z,95.30
2019-05-26T06:20:55.668Z,95.72
2019-05-26T06:23:25.401Z,95.73
2019-05-26T06:25:55.175Z,95.36
2019-05-26T06:28:24.920Z,96.06
2019-05-26T06:30:54.632Z,95.90
2019-05-26T06:33:24.334Z,94.91
2019-05-26T06:35:54.031Z,94.80
2019-05-26T06:38:23.818Z,95.48
2019-05-26T06:40:53.505Z,95.70
2019-05-26T06:43:23.275Z,95.43
2019-05-26T06:45:52.980Z,94.96
2019-05-26T06:48:26.595Z,95.08
2019-05-26T06:50:54.212Z,95.39
2019-05-26T06:53:23.869Z,94.63
2019-05-26T06:55:53.547Z,94.53
2019-05-26T06:58:23.272Z,94.82
2019-05-26T07:00:53.024Z,94.08
2019-05-26T07:03:22.702Z,92.69
2019-05-26T07:05:52.431Z,92.62
2019-05-26T07:08:22.100Z,92.84
2019-05-26T07:10:51.834Z,93.34
2019-05-26T07:13:21.507Z,92.77
2019-05-26T07:15:51.296Z,92.55
2019-05-26T07:18:21.060Z,92.26
2019-05-26T07:20:50.715Z,92.33
2019-05-26T07:23:20.504Z,91.60
2019-05-26T07:25:50.189Z,92.29
2019-05-26T07:28:20.796Z,92.61
2019-05-26T07:30:50.534Z,91.74
2019-05-26T07:33:20.327Z,90.63
2019-05-26T07:35:50.132Z,90.56
2019-05-26T07:38:20.004Z,90.55
2019-05-26T07:40:49.670Z,90.39
2019-05-26T07:43:19.447Z,90.41
2019-05-26T07:45:49.383Z,90.09
2019-05-26T07:48:19.238Z,90.72
2019-05-26T07:50:48.961Z,90.98
2019-05-26T07:53:19.529Z,90.37
2019-05-26T07:55:49.214Z,91.08
2019-05-26T07:58:18.896Z,91.70
2019-05-26T08:00:48.729Z,92.04
2019-05-26T08:03:18.475Z,92.45
2019-05-26T08:05:48.267Z,91.74
2019-05-26T08:08:18.054Z,92.68
2019-05-26T08:10:47.812Z,93.92
2019-05-26T08:13:17.511Z,94.86
2019-05-26T08:15:47.295Z,96.12
2019-05-26T08:18:17.560Z,95.74
2019-05-26T08:20:47.265Z,96.29
2019-05-26T08:23:16.936Z,96.62
2019-05-26T08:25:46.663Z,96.80
2019-05-26T08:28:16.397Z,97.19
2019-05-26T08:30:46.159Z,98.52
2019-05-26T08:33:15.871Z,99.08
2019-05-26T08:35:45.716Z,99.98
2019-05-26T08:38:15.429Z,100.00
2019-05-26T08:40:45.226Z,100.00
2019-05-26T08:43:14.921Z,100.00
2019-05-26T08:45:44.636Z,100.00
2019-05-26T08:48:14.453Z,100.00
2019-05-26T08:50:44.155Z,100.00
2019-05-26T08:53:13.915Z,100.00
2019-05-26T08:55:43.609Z,100.00
2019-05-26T08:58:13.315Z,100.00
2019-05-26T09:00:43.038Z,100.00
2019-05-26T09:03:12.778Z,100.00
2019-05-26T09:05:42.519Z,100.00
2019-05-26T09:08:12.274Z,100.00
2019-05-26T09:10:42.165Z,100.00
2019-05-26T09:13:11.848Z,100.00
2019-05-26T09:15:43.229Z,100.00
2019-05-26T09:18:14.657Z,100.00
2019-05-26T09:20:44.412Z,100.00
2019-05-26T09:23:14.358Z,100.00
2019-05-26T09:25:46.559Z,100.00
2019-05-26T09:28:16.017Z,100.00
2019-05-26T09:30:46.196Z,100.00
2019-05-26T09:33:15.926Z,100.00
2019-05-26T09:35:45.647Z,100.00
2019-05-26T09:38:15.559Z,100.00
2019-05-26T09:40:45.422Z,100.00
2019-05-26T09:43:16.735Z,100.00
2019-05-26T09:45:46.624Z,100.00
2019-05-26T09:48:16.485Z,100.00
2019-05-26T09:50:48.201Z,100.00
2019-05-26T09:53:17.944Z,100.00
2019-05-26T09:55:47.710Z,100.00
2019-05-26T09:58:17.481Z,100.00
2019-05-26T10:00:47.349Z,100.00
2019-05-26T10:03:17.122Z,100.00
2019-05-26T10:05:46.834Z,100.00
2019-05-26T10:08:16.669Z,100.00
2019-05-26T10:10:46.543Z,100.00
2019-05-26T10:13:29.106Z,100.00
2019-05-26T10:15:47.783Z,100.00
2019-05-26T10:18:17.505Z,100.00
2019-05-26T10:20:47.234Z,100.00
2019-05-26T10:23:16.937Z,100.00
2019-05-26T10:25:46.704Z,100.00
2019-05-26T10:28:16.434Z,100.00
2019-05-26T10:30:46.274Z,100.00
2019-05-26T10:33:16.224Z,100.00
2019-05-26T10:35:46.080Z,100.00
2019-05-26T10:38:15.983Z,100.00
2019-05-26T10:40:45.881Z,100.00
2019-05-26T10:43:15.627Z,100.00
2019-05-26T10:45:45.418Z,100.00
2019-05-26T10:48:15.310Z,100.00
2019-05-26T10:50:45.239Z,100.00
2019-05-26T10:53:14.999Z,100.00
2019-05-26T10:55:44.925Z,100.00
2019-05-26T10:58:14.690Z,100.00
2019-05-26T11:00:44.470Z,100.00
2019-05-26T11:03:14.346Z,100.00
2019-05-26T11:05:44.396Z,100.00
2019-05-26T11:08:14.135Z,100.00
2019-05-26T11:10:43.987Z,100.00
2019-05-26T11:13:13.796Z,100.00
2019-05-26T11:15:44.801Z,100.00
2019-05-26T11:18:14.632Z,100.00
2019-05-26T11:20:44.583Z,100.00
2019-05-26T11:23:14.320Z,100.00
2019-05-26T11:25:44.168Z,100.00
2019-05-26T11:28:14.025Z,100.00
2019-05-26T11:30:43.770Z,100.00
2019-05-26T11:33:13.616Z,100.00
2019-05-26T11:35:43.332Z,100.00
2019-05-26T11:38:15.411Z,100.00
2019-05-26T11:40:45.610Z,100.00
2019-05-26T11:43:17.862Z,100.00
2019-05-26T11:45:49.255Z,100.00
2019-05-26T11:48:19.085Z,100.00
2019-05-26T11:50:48.964Z,100.00
2019-05-26T11:53:18.749Z,100.00
2019-05-26T11:55:48.570Z,100.00
2019-05-26T11:58:18.407Z,100.00
2019-05-26T12:00:48.202Z,100.00
2019-05-26T12:03:17.961Z,100.00
2019-05-26T12:05:47.930Z,100.00
2019-05-26T12:08:17.698Z,100.00
2019-05-26T12:10:47.396Z,100.00
2019-05-26T12:13:17.415Z,100.00
2019-05-26T12:15:47.150Z,100.00
2019-05-26T12:18:17.002Z,100.00
2019-05-26T12:20:46.737Z,100.00
2019-05-26T12:23:16.638Z,100.00
2019-05-26T12:25:46.411Z,100.00
2019-05-26T12:28:16.199Z,100.00
2019-05-26T12:30:45.963Z,100.00
2019-05-26T12:33:15.844Z,100.00
2019-05-26T12:35:46.223Z,100.00
2019-05-26T12:38:16.392Z,100.00
2019-05-26T12:40:46.278Z,100.00
2019-05-26T12:43:16.018Z,100.00
2019-05-26T12:45:45.797Z,100.00
2019-05-26T12:48:15.703Z,100.00
2019-05-26T12:50:45.643Z,100.00
2019-05-26T12:53:15.573Z,100.00
2019-05-26T12:55:45.331Z,100.00
2019-05-26T12:58:15.156Z,100.00
2019-05-26T13:00:49.629Z,100.00
2019-05-26T13:03:16.497Z,100.00
2019-05-26T13:05:46.300Z,100.00
2019-05-26T13:08:16.046Z,100.00
2019-05-26T13:10:45.885Z,100.00
2019-05-26T13:13:15.598Z,100.00
2019-05-26T13:15:45.464Z,100.00
2019-05-26T13:18:15.272Z,100.00
2019-05-26T13:20:45.104Z,100.00
2019-05-26T13:23:14.867Z,100.00
2019-05-26T13:25:44.647Z,100.00
2019-05-26T13:28:14.403Z,100.00
2019-05-26T13:30:44.137Z,100.00
2019-05-26T13:33:13.815Z,100.00
2019-05-26T13:35:43.592Z,100.00
2019-05-26T13:38:13.454Z,100.00
2019-05-26T13:40:43.166Z,100.00
2019-05-26T13:43:12.879Z,100.00
2019-05-26T13:45:42.573Z,100.00
2019-05-26T13:48:12.351Z,100.00
2019-05-26T13:50:42.119Z,100.00
2019-05-26T13:53:11.962Z,100.00
2019-05-26T13:55:41.683Z,100.00
2019-05-26T13:58:11.420Z,100.00
2019-05-26T14:00:41.171Z,100.00
2019-05-26T14:03:10.899Z,100.00
2019-05-26T14:05:40.959Z,100.00
2019-05-26T14:08:10.727Z,100.00
2019-05-26T14:10:40.501Z,100.00
2019-05-26T14:13:10.383Z,100.00
2019-05-26T14:15:40.117Z,100.00
2019-05-26T14:18:10.036Z,100.00
2019-05-26T14:20:41.571Z,100.00
2019-05-26T14:23:11.534Z,100.00
2019-05-26T14:25:41.300Z,100.00
2019-05-26T14:28:11.247Z,100.00
2019-05-26T14:30:40.945Z,100.00
2019-05-26T14:33:10.797Z,100.00
2019-05-26T14:35:40.570Z,100.00
2019-05-26T14:38:10.254Z,100.00
2019-05-26T14:40:39.963Z,100.00
2019-05-26T14:43:09.904Z,100.00
2019-05-26T14:45:52.433Z,100.00
2019-05-26T14:48:11.053Z,100.00
2019-05-26T14:50:41.241Z,100.00
2019-05-26T14:53:11.103Z,100.00
2019-05-26T14:55:40.821Z,100.00
2019-05-26T14:58:16.226Z,100.00
2019-05-26T15:00:41.998Z,100.00
2019-05-26T15:03:11.685Z,100.00
2019-05-26T15:05:41.439Z,100.00
2019-05-26T15:08:11.111Z,100.00
2019-05-26T15:10:40.980Z,100.00
2019-05-26T15:13:10.811Z,100.00
2019-05-26T15:15:40.571Z,100.00
2019-05-26T15:18:10.232Z,100.00
2019-05-26T15:20:40.034Z,100.00
2019-05-26T15:23:09.855Z,100.00
2019-05-26T15:25:39.591Z,100.00
2019-05-26T15:28:09.364Z,100.00
2019-05-26T15:30:39.120Z,100.00
2019-05-26T15:33:08.840Z,100.00
2019-05-26T15:35:38.534Z,100.00
2019-05-26T15:38:08.308Z,100.00
2019-05-26T15:40:38.019Z,100.00
2019-05-26T15:43:07.859Z,100.00
2019-05-26T15:45:37.594Z,100.00
2019-05-26T15:48:07.462Z,100.00
2019-05-26T15:50:37.176Z,100.00
2019-05-26T15:53:06.900Z,100.00
2019-05-26T15:55:39.852Z,100.00
2019-05-26T15:58:08.084Z,100.00
2019-05-26T16:00:37.945Z,100.00
2019-05-26T16:03:07.700Z,100.00
2019-05-26T16:05:37.499Z,100.00
2019-05-26T16:08:07.211Z,100.00
2019-05-26T16:10:37.058Z,100.00
2019-05-26T16:13:06.879Z,100.00
2019-05-26T16:15:36.644Z,100.00
2019-05-26T16:18:06.454Z,100.00
2019-05-26T16:20:36.232Z,100.00
2019-05-26T16:23:08.738Z,100.00
2019-05-26T16:25:37.475Z,100.00
2019-05-26T16:28:07.269Z,100.00
2019-05-26T16:30:36.975Z,100.00
2019-05-26T16:33:06.684Z,100.00
2019-05-26T16:35:36.483Z,100.00
2019-05-26T16:38:06.321Z,100.00
2019-05-26T16:40:36.100Z,100.00
2019-05-26T16:43:05.801Z,100.00
2019-05-26T16:45:37.125Z,100.00
2019-05-26T16:48:08.043Z,100.00
2019-05-26T16:50:37.787Z,100.00
2019-05-26T16:53:08.344Z,100.00
2019-05-26T16:55:38.326Z,100.00
2019-05-26T16:58:09.047Z,100.00
2019-05-26T17:00:38.819Z,100.00
2019-05-26T17:03:08.747Z,100.00
2019-05-26T17:05:38.661Z,100.00
2019-05-26T17:08:08.500Z,100.00
2019-05-26T17:10:38.722Z,100.00
2019-05-26T17:13:10.571Z,100.00
2019-05-26T17:15:40.626Z,100.00
2019-05-26T17:18:12.256Z,100.00
2019-05-26T17:20:42.174Z,100.00
2019-05-26T17:23:12.185Z,100.00
2019-05-26T17:25:41.930Z,100.00
2019-05-26T17:28:11.695Z,100.00
2019-05-26T17:30:41.459Z,100.00
2019-05-26T17:33:11.217Z,100.00
2019-05-26T17:35:40.937Z,100.00
2019-05-26T17:38:10.621Z,100.00
2019-05-26T17:40:40.484Z,100.00
2019-05-26T17:43:10.307Z,100.00
2019-05-26T17:45:40.133Z,100.00
2019-05-26T17:48:19.441Z,100.00
2019-05-26T17:50:49.166Z,100.00
2019-05-26T17:53:19.094Z,100.00
2019-05-26T17:55:48.909Z,100.00
2019-05-26T17:58:18.711Z,100.00
2019-05-26T18:00:48.620Z,100.00
2019-05-26T18:03:18.822Z,100.00
2019-05-26T18:05:48.680Z,100.00
2019-05-26T18:08:18.590Z,100.00
2019-05-26T18:10:48.355Z,100.00
2019-05-26T18:13:18.179Z,100.00
2019-05-26T18:15:47.954Z,100.00
2019-05-26T18:18:17.707Z,100.00
2019-05-26T18:20:47.436Z,100.00
2019-05-26T18:23:17.393Z,100.00
2019-05-26T18:25:48.649Z,100.00
2019-05-26T18:28:18.517Z,100.00
2019-05-26T18:30:48.427Z,100.00
2019-05-26T18:33:18.304Z,100.00
2019-05-26T18:35:48.190Z,100.00
2019-05-26T18:38:18.107Z,100.00
2019-05-26T18:40:48.004Z,100.00
2019-05-26T18:43:18.067Z,100.00
2019-05-26T18:45:47.775Z,100.00
2019-05-26T18:48:18.631Z,100.00
2019-05-26T18:50:49.657Z,100.00
2019-05-26T18:53:19.919Z,100.00
2019-05-26T18:55:49.887Z,100.00
2019-05-26T18:58:19.714Z,100.00
2019-05-26T19:00:49.906Z,100.00
2019-05-26T19:03:19.797Z,100.00
2019-05-26T19:05:49.484Z,100.00
2019-05-26T19:08:19.350Z,100.00
2019-05-26T19:10:49.029Z,100.00
2019-05-26T19:13:18.805Z,100.00
2019-05-26T19:15:48.702Z,100.00
2019-05-26T19:18:20.303Z,100.00
2019-05-26T19:20:50.456Z,100.00
2019-05-26T19:23:20.517Z,100.00
2019-05-26T19:25:50.333Z,100.00
2019-05-26T19:28:20.327Z,100.00
2019-05-26T19:30:50.204Z,100.00
2019-05-26T19:33:20.011Z,100.00
2019-05-26T19:35:50.173Z,100.00
2019-05-26T19:38:20.103Z,100.00
2019-05-26T19:40:49.868Z,100.00
2019-05-26T19:43:19.746Z,100.00
2019-05-26T19:45:49.572Z,100.00
2019-05-26T19:48:32.967Z,100.00
2019-05-26T19:50:50.910Z,100.00
2019-05-26T19:53:20.875Z,100.00
2019-05-26T19:55:50.790Z,100.00
2019-05-26T19:58:20.607Z,100.00
2019-05-26T20:00:50.429Z,100.00
2019-05-26T20:03:20.408Z,100.00
2019-05-26T20:05:50.478Z,100.00
2019-05-26T20:08:20.281Z,100.00
2019-05-26T20:10:50.562Z,100.00
2019-05-26T20:13:20.696Z,100.00
2019-05-26T20:15:50.659Z,100.00
2019-05-26T20:18:21.003Z,100.00
2019-05-26T20:20:50.946Z,100.00
2019-05-26T20:23:20.878Z,100.00
2019-05-26T20:25:51.379Z,100.00
2019-05-26T20:28:21.204Z,100.00
2019-05-26T20:30:51.103Z,100.00
2019-05-26T20:33:20.874Z,100.00
2019-05-26T20:35:50.683Z,100.00
2019-05-26T20:38:20.615Z,100.00
2019-05-26T20:40:50.532Z,100.00
2019-05-26T20:43:20.342Z,100.00
2019-05-26T20:45:54.832Z,100.00
2019-05-26T20:48:35.401Z,100.00
2019-05-26T20:51:05.366Z,100.00
2019-05-26T20:53:35.127Z,100.00
2019-05-26T20:56:05.131Z,100.00
2019-05-26T20:58:34.918Z,100.00
2019-05-26T21:01:04.825Z,100.00
2019-05-26T21:03:36.360Z,100.00
2019-05-26T21:06:06.143Z,100.00
2019-05-26T21:08:36.001Z,100.00
2019-05-26T21:11:06.031Z,100.00
2019-05-26T21:13:35.790Z,100.00
2019-05-26T21:16:05.693Z,100.00
2019-05-26T21:18:35.503Z,100.00
2019-05-26T21:21:05.445Z,100.00
2019-05-26T21:23:35.184Z,100.00
2019-05-26T21:26:04.981Z,100.00
2019-05-26T21:28:34.777Z,100.00
2019-05-26T21:31:04.699Z,100.00
2019-05-26T21:33:34.463Z,100.00
2019-05-26T21:36:04.374Z,100.00
2019-05-26T21:38:34.107Z,100.00
2019-05-26T21:41:04.101Z,100.00
2019-05-26T21:43:33.946Z,100.00
2019-05-26T21:46:03.764Z,100.00
2019-05-26T21:48:34.786Z,100.00
2019-05-26T21:51:05.080Z,100.00
2019-05-26T21:53:34.953Z,100.00
2019-05-26T21:56:04.934Z,100.00
2019-05-26T21:58:34.688Z,100.00
2019-05-26T22:01:04.728Z,100.00
2019-05-26T22:03:34.525Z,100.00
2019-05-26T22:06:04.738Z,100.00
2019-05-26T22:08:34.502Z,100.00
2019-05-26T22:11:04.440Z,100.00
2019-05-26T22:13:34.160Z,100.00
2019-05-26T22:16:04.137Z,100.00
2019-05-26T22:18:34.030Z,100.00
2019-05-26T22:21:03.873Z,100.00
2019-05-26T22:23:33.661Z,100.00
2019-05-26T22:26:03.491Z,100.00
2019-05-26T22:28:33.295Z,100.00
2019-05-26T22:31:03.130Z,100.00
2019-05-26T22:33:32.892Z,100.00
2019-05-26T22:36:02.645Z,100.00
2019-05-26T22:38:32.436Z,100.00
2019-05-26T22:41:02.197Z,100.00
2019-05-26T22:43:31.970Z,100.00
2019-05-26T22:46:01.693Z,100.00
2019-05-26T22:48:32.456Z,100.00
2019-05-26T22:51:02.292Z,100.00
2019-05-26T22:53:32.057Z,100.00
2019-05-26T22:56:01.884Z,100.00
2019-05-26T22:58:31.698Z,100.00
2019-05-26T23:01:01.620Z,100.00
2019-05-26T23:03:31.500Z,100.00
2019-05-26T23:06:01.294Z,100.00
2019-05-26T23:08:31.128Z,100.00
2019-05-26T23:11:00.972Z,100.00
2019-05-26T23:13:30.768Z,100.00
2019-05-26T23:16:00.745Z,100.00
2019-05-26T23:18:30.470Z,100.00
2019-05-26T23:21:00.223Z,100.00
2019-05-26T23:23:30.065Z,100.00
2019-05-26T23:25:59.904Z,100.00
2019-05-26T23:28:29.661Z,100.00
2019-05-26T23:30:59.574Z,100.00
2019-05-26T23:33:29.391Z,100.00
2019-05-26T23:35:59.252Z,100.00
2019-05-26T23:38:29.033Z,100.00
2019-05-26T23:40:58.865Z,100.00
2019-05-26T23:43:28.636Z,100.00
2019-05-26T23:45:58.549Z,100.00
2019-05-26T23:49:07.480Z,100.00
2019-05-26T23:51:37.193Z,100.00
2019-05-26T23:54:07.024Z,100.00
2019-05-26T23:56:36.735Z,100.00
2019-05-26T23:59:06.477Z,100.00
